createdAt,value
2018-07-10T00:02:20.843Z,67.44
2018-07-10T00:07:06.420Z,67.32
2018-07-10T00:10:43.345Z,66.56
2018-07-10T00:13:11.375Z,66.94
2018-07-10T00:15:39.448Z,67.51
2018-07-10T00:18:07.464Z,68.09
2018-07-10T00:20:35.507Z,68.32
2018-07-10T00:23:03.568Z,68.12
2018-07-10T00:25:31.608Z,68.43
2018-07-10T00:27:59.624Z,68.16
2018-07-10T00:30:27.656Z,68.24
2018-07-10T00:32:55.692Z,68.65
2018-07-10T00:35:23.736Z,68.54
2018-07-10T00:39:03.201Z,68.54
2018-07-10T00:41:33.579Z,68.45
2018-07-10T00:44:02.257Z,68.41
2018-07-10T00:46:31.439Z,68.41
2018-07-10T00:48:59.496Z,69.12
2018-07-10T00:51:28.224Z,68.84
2018-07-10T00:53:56.253Z,69.04
2018-07-10T00:56:24.300Z,69.27
2018-07-10T00:58:53.960Z,69.34
2018-07-10T01:01:23.080Z,69.15
2018-07-10T01:03:51.331Z,69.27
2018-07-10T01:06:19.395Z,69.30
2018-07-10T01:08:47.876Z,69.85
2018-07-10T01:11:16.871Z,69.99
2018-07-10T01:13:45.955Z,70.14
2018-07-10T01:16:16.684Z,69.91
2018-07-10T01:18:45.807Z,70.15
2018-07-10T01:21:16.217Z,69.81
2018-07-10T01:23:44.272Z,70.34
2018-07-10T01:26:13.086Z,70.49
2018-07-10T01:28:41.781Z,70.31
2018-07-10T01:31:09.807Z,70.83
2018-07-10T01:33:37.901Z,70.62
2018-07-10T01:36:07.205Z,71.04
2018-07-10T01:38:36.052Z,71.25
2018-07-10T01:41:04.216Z,71.42
2018-07-10T01:43:32.535Z,71.54
2018-07-10T01:46:00.656Z,71.28
2018-07-10T01:48:28.686Z,71.26
2018-07-10T01:50:56.716Z,71.46
2018-07-10T01:53:24.753Z,71.27
2018-07-10T01:55:52.815Z,71.17
2018-07-10T01:58:21.166Z,71.41
2018-07-10T02:00:49.412Z,71.65
2018-07-10T02:03:17.465Z,72.06
2018-07-10T02:05:45.508Z,72.06
2018-07-10T02:08:13.548Z,72.29
2018-07-10T02:10:41.578Z,72.46
2018-07-10T02:13:09.616Z,72.63
2018-07-10T02:15:37.656Z,72.50
2018-07-10T02:18:05.692Z,73.01
2018-07-10T02:20:44.320Z,72.82
2018-07-10T02:23:12.359Z,72.86
2018-07-10T02:25:40.399Z,73.04
2018-07-10T02:28:08.432Z,72.84
2018-07-10T02:30:36.741Z,73.37
2018-07-10T02:33:04.769Z,73.16
2018-07-10T02:35:32.801Z,73.49
2018-07-10T02:38:01.216Z,73.31
2018-07-10T02:40:29.247Z,73.08
2018-07-10T02:42:57.315Z,73.06
2018-07-10T02:45:25.344Z,73.67
2018-07-10T02:47:53.407Z,73.61
2018-07-10T02:50:21.449Z,73.76
2018-07-10T02:52:49.488Z,73.72
2018-07-10T02:55:17.715Z,74.08
2018-07-10T02:57:45.776Z,73.60
2018-07-10T03:00:13.809Z,73.70
2018-07-10T03:02:41.843Z,74.45
2018-07-10T03:05:09.872Z,74.62
2018-07-10T03:07:38.380Z,74.11
2018-07-10T03:10:06.404Z,73.95
2018-07-10T03:12:36.660Z,74.28
2018-07-10T03:15:05.852Z,74.39
2018-07-10T03:17:34.112Z,74.09
2018-07-10T03:20:04.141Z,74.21
2018-07-10T03:22:32.185Z,74.32
2018-07-10T03:25:00.291Z,74.58
2018-07-10T03:27:28.349Z,74.47
2018-07-10T03:29:56.636Z,74.47
2018-07-10T03:32:24.679Z,74.22
2018-07-10T03:34:52.721Z,74.39
2018-07-10T03:37:20.748Z,74.21
2018-07-10T03:39:49.292Z,74.49
2018-07-10T03:42:17.414Z,74.95
2018-07-10T03:44:46.238Z,74.43
2018-07-10T03:47:16.288Z,74.27
2018-07-10T03:49:45.352Z,74.11
2018-07-10T03:52:15.294Z,74.47
2018-07-10T03:54:43.895Z,74.73
2018-07-10T03:57:13.490Z,74.52
2018-07-10T03:59:46.120Z,74.48
2018-07-10T04:02:14.144Z,74.57
2018-07-10T04:04:42.416Z,74.39
2018-07-10T04:07:10.454Z,74.82
2018-07-10T04:09:38.856Z,74.89
2018-07-10T04:12:06.911Z,74.59
2018-07-10T04:14:34.936Z,74.50
2018-07-10T04:17:03.648Z,74.52
2018-07-10T04:19:31.704Z,74.56
2018-07-10T04:22:01.803Z,74.12
2018-07-10T04:24:29.927Z,73.74
2018-07-10T04:27:04.364Z,74.01
2018-07-10T04:29:38.376Z,74.03
2018-07-10T04:32:08.887Z,73.73
2018-07-10T04:34:36.932Z,73.70
2018-07-10T04:37:07.558Z,74.09
2018-07-10T04:39:36.003Z,74.42
2018-07-10T04:42:12.317Z,74.19
2018-07-10T04:44:41.535Z,74.26
2018-07-10T04:47:16.555Z,73.99
2018-07-10T04:49:49.957Z,73.90
2018-07-10T04:52:24.676Z,74.13
2018-07-10T04:54:59.297Z,74.06
2018-07-10T04:57:31.722Z,73.98
2018-07-10T05:00:03.233Z,74.06
2018-07-10T05:02:31.260Z,74.36
2018-07-10T05:04:59.292Z,73.91
2018-07-10T05:07:27.331Z,74.03
2018-07-10T05:09:55.656Z,73.72
2018-07-10T05:12:23.708Z,74.27
2018-07-10T05:14:52.551Z,73.79
2018-07-10T05:17:20.524Z,73.50
2018-07-10T05:19:48.825Z,73.45
2018-07-10T05:22:17.303Z,73.72
2018-07-10T05:24:45.579Z,73.70
2018-07-10T05:27:13.852Z,73.47
2018-07-10T05:29:41.945Z,73.75
2018-07-10T05:32:10.924Z,73.55
2018-07-10T05:34:39.790Z,73.52
2018-07-10T05:37:08.842Z,73.25
2018-07-10T05:39:41.540Z,73.04
2018-07-10T05:42:09.831Z,73.19
2018-07-10T05:44:37.944Z,73.07
2018-07-10T05:47:05.972Z,72.64
2018-07-10T05:49:38.965Z,72.82
2018-07-10T05:52:07.059Z,72.60
2018-07-10T05:54:37.261Z,72.17
2018-07-10T05:57:05.831Z,72.44
2018-07-10T05:59:33.868Z,72.98
2018-07-10T06:02:01.901Z,72.80
2018-07-10T06:04:29.997Z,72.32
2018-07-10T06:06:59.131Z,72.25
2018-07-10T06:09:27.165Z,72.31
2018-07-10T06:11:55.199Z,72.12
2018-07-10T06:14:23.392Z,72.50
2018-07-10T06:16:51.672Z,72.13
2018-07-10T06:19:19.716Z,72.70
2018-07-10T06:21:49.730Z,72.68
2018-07-10T06:24:27.212Z,72.29
2018-07-10T06:27:02.244Z,72.51
2018-07-10T06:29:39.992Z,72.57
2018-07-10T06:32:08.036Z,72.50
2018-07-10T06:34:38.228Z,72.69
2018-07-10T06:37:08.257Z,72.38
2018-07-10T06:39:36.306Z,72.75
2018-07-10T06:42:08.468Z,70.12
2018-07-10T06:44:37.463Z,70.53
2018-07-10T06:47:28.587Z,70.50
2018-07-10T06:49:58.376Z,70.66
2018-07-10T06:52:26.489Z,71.12
2018-07-10T06:55:07.237Z,71.23
2018-07-10T06:57:36.546Z,70.15
2018-07-10T07:00:06.841Z,70.10
2018-07-10T07:02:36.163Z,70.62
2018-07-10T07:05:04.203Z,69.03
2018-07-10T07:07:34.046Z,68.76
2018-07-10T07:10:03.725Z,68.87
2018-07-10T07:12:32.092Z,69.20
2018-07-10T07:15:00.172Z,68.56
2018-07-10T07:17:28.773Z,68.63
2018-07-10T07:19:56.884Z,69.17
2018-07-10T07:22:24.912Z,69.38
2018-07-10T07:24:52.944Z,69.63
2018-07-10T07:27:21.008Z,69.31
2018-07-10T07:29:49.035Z,69.12
2018-07-10T07:32:17.083Z,69.12
2018-07-10T07:34:45.112Z,68.67
2018-07-10T07:37:13.184Z,68.71
2018-07-10T07:39:43.490Z,69.08
2018-07-10T07:42:11.529Z,68.75
2018-07-10T07:44:39.552Z,68.84
2018-07-10T07:47:07.584Z,67.25
2018-07-10T07:49:35.607Z,67.65
2018-07-10T07:52:03.647Z,67.03
2018-07-10T07:54:31.688Z,66.47
2018-07-10T07:56:59.747Z,66.83
2018-07-10T07:59:27.788Z,66.21
2018-07-10T08:01:55.836Z,66.08
2018-07-10T08:04:23.844Z,65.47
2018-07-10T08:06:51.908Z,65.69
2018-07-10T08:09:19.945Z,66.09
2018-07-10T08:11:47.988Z,65.95
2018-07-10T08:14:17.342Z,64.88
2018-07-10T08:16:45.628Z,64.48
2018-07-10T08:19:15.091Z,63.85
2018-07-10T08:21:45.304Z,63.37
2018-07-10T08:24:13.335Z,62.94
2018-07-10T08:26:41.409Z,62.83
2018-07-10T08:29:10.159Z,61.13
2018-07-10T08:31:38.187Z,60.20
2018-07-10T08:34:06.253Z,59.32
2018-07-10T08:36:34.243Z,59.60
2018-07-10T08:39:02.331Z,58.93
2018-07-10T08:41:39.336Z,58.15
2018-07-10T08:44:07.364Z,57.71
2018-07-10T08:46:35.393Z,57.50
2018-07-10T08:49:03.432Z,56.26
2018-07-10T08:51:31.468Z,57.17
2018-07-10T08:53:59.503Z,57.43
2018-07-10T08:56:27.560Z,56.29
2018-07-10T08:58:55.580Z,55.28
2018-07-10T09:01:23.720Z,55.15
2018-07-10T09:03:51.766Z,55.71
2018-07-10T09:06:19.795Z,55.49
2018-07-10T09:08:47.831Z,54.95
2018-07-10T09:11:15.875Z,55.25
2018-07-10T09:13:43.962Z,54.91
2018-07-10T09:16:11.944Z,54.17
2018-07-10T09:18:39.992Z,52.90
2018-07-10T09:21:08.021Z,52.52
2018-07-10T09:23:36.064Z,53.41
2018-07-10T09:26:05.081Z,53.15
2018-07-10T09:28:35.016Z,53.56
2018-07-10T09:31:03.770Z,52.80
2018-07-10T09:33:31.887Z,53.65
2018-07-10T09:36:00.038Z,54.05
2018-07-10T09:38:28.090Z,54.02
2018-07-10T09:40:56.571Z,53.04
2018-07-10T09:43:26.067Z,53.72
2018-07-10T09:45:54.453Z,53.40
2018-07-10T09:48:22.489Z,53.51
2018-07-10T09:50:50.900Z,54.15
2018-07-10T09:53:18.961Z,52.75
2018-07-10T09:55:46.996Z,52.25
2018-07-10T09:58:15.037Z,50.50
2018-07-10T10:00:48.411Z,50.63
2018-07-10T10:03:16.475Z,49.31
2018-07-10T10:05:45.120Z,49.65
2018-07-10T10:08:13.360Z,46.74
2018-07-10T10:10:41.484Z,48.08
2018-07-10T10:13:09.704Z,46.99
2018-07-10T10:15:38.274Z,46.74
2018-07-10T10:18:08.093Z,46.86
2018-07-10T10:20:36.871Z,46.35
2018-07-10T10:23:05.440Z,44.96
2018-07-10T10:25:35.457Z,44.01
2018-07-10T10:28:05.064Z,44.20
2018-07-10T10:30:33.551Z,44.30
2018-07-10T10:33:02.017Z,44.33
2018-07-10T10:35:30.171Z,43.77
2018-07-10T10:37:58.500Z,43.34
2018-07-10T10:40:27.572Z,43.49
2018-07-10T10:42:55.603Z,43.17
2018-07-10T10:45:23.936Z,42.89
2018-07-10T10:47:51.955Z,41.04
2018-07-10T10:50:20.065Z,40.49
2018-07-10T10:52:48.668Z,42.06
2018-07-10T10:55:16.708Z,41.21
2018-07-10T10:57:44.795Z,41.38
2018-07-10T11:00:12.832Z,41.15
2018-07-10T11:02:40.915Z,40.33
2018-07-10T11:05:08.936Z,41.08
2018-07-10T11:07:37.032Z,41.27
2018-07-10T11:10:05.117Z,41.85
2018-07-10T11:12:34.108Z,41.97
2018-07-10T11:15:03.833Z,41.37
2018-07-10T11:17:33.379Z,40.55
2018-07-10T11:20:08.779Z,41.00
2018-07-10T11:22:46.353Z,40.17
2018-07-10T11:25:14.553Z,40.97
2018-07-10T11:28:04.839Z,41.52
2018-07-10T11:30:33.310Z,40.60
2018-07-10T11:33:02.504Z,40.17
2018-07-10T11:35:30.655Z,39.55
2018-07-10T11:38:00.680Z,40.16
2018-07-10T11:40:28.753Z,39.70
2018-07-10T11:42:56.785Z,40.16
2018-07-10T11:45:24.847Z,39.61
2018-07-10T11:47:52.964Z,38.44
2018-07-10T11:50:21.089Z,39.99
2018-07-10T11:52:49.132Z,39.54
2018-07-10T11:55:17.172Z,39.27
2018-07-10T11:57:45.219Z,38.60
2018-07-10T12:00:13.308Z,39.05
2018-07-10T12:02:44.268Z,39.35
2018-07-10T12:05:13.256Z,39.88
2018-07-10T12:07:41.556Z,39.54
2018-07-10T12:10:21.887Z,38.96
2018-07-10T12:12:50.884Z,38.78
2018-07-10T12:15:19.067Z,38.45
2018-07-10T12:17:49.984Z,38.90
2018-07-10T12:21:47.964Z,38.71
2018-07-10T12:24:16.164Z,38.59
2018-07-10T12:26:44.207Z,38.97
2018-07-10T12:29:12.468Z,38.82
2018-07-10T12:31:40.512Z,38.49
2018-07-10T12:34:08.539Z,37.74
2018-07-10T12:36:37.060Z,37.56
2018-07-10T12:39:05.684Z,37.26
2018-07-10T12:41:33.793Z,36.93
2018-07-10T12:44:01.796Z,37.02
2018-07-10T12:46:29.835Z,36.44
2018-07-10T12:48:57.871Z,36.88
2018-07-10T12:51:25.946Z,37.11
2018-07-10T12:53:54.000Z,37.03
2018-07-10T12:56:22.061Z,37.23
2018-07-10T12:58:50.124Z,37.10
2018-07-10T13:01:18.168Z,36.95
2018-07-10T13:03:47.500Z,36.85
2018-07-10T13:06:15.548Z,36.41
2018-07-10T13:08:43.593Z,36.32
2018-07-10T13:11:11.627Z,36.11
2018-07-10T13:13:39.676Z,36.03
2018-07-10T13:16:07.742Z,35.82
2018-07-10T13:18:35.818Z,36.06
2018-07-10T13:21:03.915Z,35.97
2018-07-10T13:23:31.952Z,35.50
2018-07-10T13:26:00.016Z,35.91
2018-07-10T13:28:28.052Z,35.29
2018-07-10T13:30:56.127Z,35.78
2018-07-10T13:33:24.187Z,36.41
2018-07-10T13:35:52.271Z,36.65
2018-07-10T13:38:21.550Z,36.95
2018-07-10T13:40:50.242Z,37.18
2018-07-10T13:43:18.347Z,37.37
2018-07-10T13:45:46.328Z,37.09
2018-07-10T13:48:14.374Z,37.15
2018-07-10T13:50:42.425Z,35.83
2018-07-10T13:53:10.476Z,36.21
2018-07-10T13:55:38.523Z,36.07
2018-07-10T13:58:14.891Z,35.22
2018-07-10T14:00:46.392Z,35.61
2018-07-10T14:03:14.404Z,35.90
2018-07-10T14:05:42.672Z,36.27
2018-07-10T14:08:10.773Z,36.80
2018-07-10T14:10:39.154Z,37.48
2018-07-10T14:13:07.509Z,38.04
2018-07-10T14:15:35.552Z,38.31
2018-07-10T14:18:04.059Z,38.58
2018-07-10T14:20:40.728Z,39.19
2018-07-10T14:23:08.777Z,39.27
2018-07-10T14:25:36.835Z,39.53
2018-07-10T14:28:04.912Z,40.13
2018-07-10T14:30:33.006Z,39.94
2018-07-10T14:33:01.053Z,39.96
2018-07-10T14:35:29.444Z,39.06
2018-07-10T14:38:00.394Z,39.38
2018-07-10T14:40:28.440Z,39.99
2018-07-10T14:42:56.584Z,40.24
2018-07-10T14:45:24.660Z,40.56
2018-07-10T14:47:53.485Z,40.46
2018-07-10T14:50:22.300Z,40.24
2018-07-10T14:52:50.374Z,40.57
2018-07-10T14:55:18.421Z,40.59
2018-07-10T14:57:46.464Z,40.78
2018-07-10T15:00:14.512Z,40.68
2018-07-10T15:02:42.603Z,41.19
2018-07-10T15:05:10.654Z,41.79
2018-07-10T15:07:38.702Z,42.07
2018-07-10T15:10:06.792Z,41.72
2018-07-10T15:12:34.844Z,42.21
2018-07-10T15:15:03.088Z,41.71
2018-07-10T15:17:36.474Z,41.86
2018-07-10T15:20:06.580Z,41.49
2018-07-10T15:22:36.316Z,41.98
2018-07-10T15:25:04.359Z,41.52
2018-07-10T15:27:32.420Z,41.74
2018-07-10T15:30:00.871Z,41.86
2018-07-10T15:32:28.897Z,41.48
2018-07-10T15:34:57.433Z,41.76
2018-07-10T15:37:25.484Z,41.96
2018-07-10T15:39:54.404Z,42.35
2018-07-10T15:42:22.444Z,42.39
2018-07-10T15:44:50.489Z,41.46
2018-07-10T15:47:18.528Z,41.98
2018-07-10T15:49:46.565Z,41.67
2018-07-10T15:52:14.624Z,42.62
2018-07-10T15:54:42.688Z,42.45
2018-07-10T15:57:10.772Z,41.88
2018-07-10T15:59:38.829Z,41.83
2018-07-10T16:02:06.905Z,42.53
2018-07-10T16:04:34.984Z,41.87
2018-07-10T16:07:03.737Z,41.74
2018-07-10T16:09:31.789Z,42.06
2018-07-10T16:12:05.692Z,41.66
2018-07-10T16:14:34.452Z,41.35
2018-07-10T16:17:12.349Z,41.61
2018-07-10T16:19:43.603Z,41.46
2018-07-10T16:22:19.733Z,41.55
2018-07-10T16:24:49.303Z,42.49
2018-07-10T16:27:23.881Z,41.99
2018-07-10T16:29:51.928Z,42.14
2018-07-10T16:32:20.004Z,42.69
2018-07-10T16:34:48.052Z,42.53
2018-07-10T16:37:16.096Z,43.06
2018-07-10T16:39:44.157Z,43.08
2018-07-10T16:42:17.757Z,43.21
2018-07-10T16:44:45.837Z,43.95
2018-07-10T16:47:36.401Z,43.31
2018-07-10T16:50:06.436Z,43.73
2018-07-10T16:52:39.205Z,44.11
2018-07-10T16:55:07.264Z,44.26
2018-07-10T16:57:35.390Z,43.71
2018-07-10T17:00:03.430Z,43.83
2018-07-10T17:02:31.472Z,44.34
2018-07-10T17:04:59.608Z,44.65
2018-07-10T17:07:27.652Z,44.23
2018-07-10T17:09:55.710Z,44.76
2018-07-10T17:12:23.746Z,44.68
2018-07-10T17:14:54.918Z,44.76
2018-07-10T17:17:23.268Z,44.77
2018-07-10T17:19:51.978Z,45.08
2018-07-10T17:22:20.244Z,45.52
2018-07-10T17:24:48.299Z,44.90
2018-07-10T17:27:18.311Z,45.30
2018-07-10T17:29:46.364Z,45.47
2018-07-10T17:32:14.420Z,45.65
2018-07-10T17:34:42.463Z,45.39
2018-07-10T17:37:10.608Z,44.94
2018-07-10T17:39:38.662Z,45.51
2018-07-10T17:42:06.700Z,45.52
2018-07-10T17:44:34.956Z,45.56
2018-07-10T17:47:03.005Z,45.34
2018-07-10T17:49:31.056Z,46.38
2018-07-10T17:51:59.096Z,45.44
2018-07-10T17:54:27.176Z,45.85
2018-07-10T17:56:55.195Z,46.67
2018-07-10T17:59:23.270Z,45.14
2018-07-10T18:01:51.312Z,45.64
2018-07-10T18:04:19.359Z,45.66
2018-07-10T18:06:47.424Z,46.05
2018-07-10T18:09:15.471Z,46.34
2018-07-10T18:11:43.548Z,45.43
2018-07-10T18:14:11.580Z,45.55
2018-07-10T18:16:39.621Z,46.03
2018-07-10T18:19:07.688Z,45.85
2018-07-10T18:21:36.296Z,46.29
2018-07-10T18:24:04.548Z,45.77
2018-07-10T18:26:32.636Z,45.84
2018-07-10T18:29:00.676Z,46.36
2018-07-10T18:31:28.733Z,46.42
2018-07-10T18:33:56.784Z,46.40
2018-07-10T18:36:24.899Z,46.27
2018-07-10T18:38:52.874Z,46.34
2018-07-10T18:41:20.922Z,46.11
2018-07-10T18:43:48.956Z,46.69
2018-07-10T18:46:17.071Z,46.54
2018-07-10T18:48:45.208Z,46.39
2018-07-10T18:51:13.421Z,46.46
2018-07-10T18:53:42.416Z,45.97
2018-07-10T18:56:10.461Z,46.63
2018-07-10T18:58:51.203Z,47.20
2018-07-10T19:01:24.020Z,47.31
2018-07-10T19:03:52.245Z,47.17
2018-07-10T19:06:21.717Z,47.37
2018-07-10T19:08:49.800Z,47.60
2018-07-10T19:11:22.959Z,47.77
2018-07-10T19:13:51.404Z,48.29
2018-07-10T19:16:19.451Z,48.83
2018-07-10T19:18:51.275Z,48.22
2018-07-10T19:21:21.748Z,48.35
2018-07-10T19:23:51.114Z,48.65
2018-07-10T19:26:22.340Z,48.25
2018-07-10T19:28:51.103Z,48.97
2018-07-10T19:31:21.365Z,49.72
2018-07-10T19:33:53.191Z,49.94
2018-07-10T19:36:21.235Z,49.77
2018-07-10T19:38:49.268Z,49.91
2018-07-10T19:41:18.904Z,50.44
2018-07-10T19:43:46.944Z,50.51
2018-07-10T19:46:14.993Z,50.23
2018-07-10T19:48:46.867Z,50.55
2018-07-10T19:51:14.910Z,50.74
2018-07-10T19:53:43.185Z,51.12
2018-07-10T19:56:11.232Z,50.86
2018-07-10T19:58:41.560Z,51.82
2018-07-10T20:01:21.485Z,51.10
2018-07-10T20:04:58.868Z,52.62
2018-07-10T20:07:34.885Z,51.52
2018-07-10T20:10:07.864Z,52.08
2018-07-10T20:12:52.417Z,52.17
2018-07-10T20:15:57.964Z,52.87
2018-07-10T20:18:29.716Z,52.62
2018-07-10T20:21:01.860Z,53.32
2018-07-10T20:23:43.387Z,53.22
2018-07-10T20:26:18.548Z,53.54
2018-07-10T20:28:51.128Z,53.25
2018-07-10T20:31:27.975Z,53.11
2018-07-10T20:34:09.363Z,53.84
2018-07-10T20:36:38.642Z,53.77
2018-07-10T20:39:07.060Z,54.33
2018-07-10T20:42:45.488Z,54.21
2018-07-10T20:45:13.533Z,54.10
2018-07-10T20:47:48.048Z,54.71
2018-07-10T20:50:21.109Z,55.02
2018-07-10T20:52:51.869Z,55.00
2018-07-10T20:55:19.899Z,55.30
2018-07-10T20:57:56.193Z,55.72
2018-07-10T21:00:24.258Z,55.55
2018-07-10T21:03:04.708Z,56.26
2018-07-10T21:05:36.885Z,56.32
2018-07-10T21:08:18.463Z,56.28
2018-07-10T21:10:50.633Z,56.57
2018-07-10T21:14:26.404Z,57.41
2018-07-10T21:17:07.281Z,56.70
2018-07-10T21:19:46.343Z,57.05
2018-07-10T21:22:27.018Z,57.88
2018-07-10T21:25:05.085Z,57.66
2018-07-10T21:27:44.991Z,58.32
2018-07-10T21:30:19.648Z,58.59
2018-07-10T21:32:59.425Z,58.49
2018-07-10T21:35:32.975Z,58.65
2018-07-10T21:38:06.931Z,58.68
2018-07-10T21:40:47.120Z,58.92
2018-07-10T21:43:21.204Z,59.13
2018-07-10T21:45:59.672Z,59.12
2018-07-10T21:48:40.419Z,59.52
2018-07-10T21:51:08.456Z,59.74
2018-07-10T21:53:36.488Z,59.84
2018-07-10T21:56:04.832Z,60.35
2018-07-10T21:58:33.272Z,60.08
2018-07-10T22:01:38.773Z,60.91
2018-07-10T22:04:06.803Z,60.27
2018-07-10T22:06:34.852Z,60.50
2018-07-10T22:09:02.890Z,60.50
2018-07-10T22:11:30.932Z,60.86
2018-07-10T22:13:58.953Z,61.21
2018-07-10T22:16:26.983Z,61.48
2018-07-10T22:18:55.020Z,61.53
2018-07-10T22:21:23.060Z,61.51
2018-07-10T22:23:51.619Z,62.04
2018-07-10T22:26:19.661Z,61.55
2018-07-10T22:28:47.689Z,62.21
2018-07-10T22:31:21.079Z,61.61
2018-07-10T22:33:49.109Z,62.34
2018-07-10T22:36:17.149Z,62.21
2018-07-10T22:38:45.185Z,62.45
2018-07-10T22:41:13.228Z,62.82
2018-07-10T22:43:41.265Z,62.75
2018-07-10T22:46:09.289Z,62.72
2018-07-10T22:48:37.321Z,62.63
2018-07-10T22:51:05.348Z,62.90
2018-07-10T22:53:33.656Z,62.90
2018-07-10T22:56:02.372Z,63.02
2018-07-10T22:58:30.423Z,63.25
2018-07-10T23:00:58.447Z,63.23
2018-07-10T23:03:26.672Z,63.45
2018-07-10T23:05:55.136Z,63.56
2018-07-10T23:08:29.628Z,64.06
2018-07-10T23:10:59.119Z,63.81
2018-07-10T23:13:27.656Z,63.76
2018-07-10T23:15:55.695Z,64.32
2018-07-10T23:18:23.742Z,64.24
2018-07-10T23:20:51.767Z,64.37
2018-07-10T23:23:20.355Z,64.62
2018-07-10T23:25:48.421Z,64.58
2018-07-10T23:28:16.455Z,64.32
2018-07-10T23:30:44.737Z,64.80
2018-07-10T23:33:14.336Z,64.76
2018-07-10T23:35:44.151Z,64.94
2018-07-10T23:38:55.475Z,64.84
2018-07-10T23:41:31.304Z,65.09
2018-07-10T23:43:59.776Z,65.14
2018-07-10T23:46:32.059Z,65.28
2018-07-10T23:49:08.764Z,65.56
2018-07-10T23:51:48.234Z,65.47
2018-07-10T23:54:16.556Z,65.86
2018-07-10T23:56:44.596Z,65.94
2018-07-10T23:59:12.619Z,65.97
